Wilmington Air Park (ILN)

 

Airport Diagram
Current Weather/Forecast (MVFR Conditions)
METAR KILN 191554Z AUTO 19010KT 6SM -RA BR FEW007 BKN018 OVC024 13/12 A3014 RMK AO2 SLP213 P0007 T01330122
TAF KILN 191503Z 1915/2012 17009KT 4SM RA BR FEW016 BKN029 OVC070 FM191800 02006KT 6SM BR VCSH BKN005 OVC010 FM192100 35006KT 2SM -SHRA BR OVC007 FM200100 06006KT 2SM SHRA BR OVC004 FM201000 03006KT 2SM -DZ BR OVC003

Airport Information

All Charts
General
Chart Name View
AIRPORT DIAGRAM
AIRPORT DIAGRAM
TAKEOFF MINIMUMS
ALTERNATE MINIMUMS
TAKEOFF MINIMUMS
ALTERNATE MINIMUMS

Approaches
Chart Name Download
ILS OR LOC RWY 04L
ILS OR LOC RWY 04R
ILS OR LOC RWY 22R
ILS OR LOC RWY 22L
ILS RWY 22R (SA CAT I)
ILS RWY 22L (CAT II)
ILS RWY 22R (CAT II - III)
RNAV (GPS) RWY 04L
RNAV (GPS) RWY 22R
ILS OR LOC RWY 04L
ILS OR LOC RWY 04R
ILS OR LOC RWY 22R
ILS OR LOC RWY 22L
ILS RWY 22R (SA CAT I)
ILS RWY 22L (CAT II)
ILS RWY 22R (CAT II - III)
RNAV (GPS) RWY 04L
RNAV (GPS) RWY 22R


Airport Statistics
Departures Arrivals Local
All Collected Stats since June 2016: 66 53 2
2020 Stats: 33 30 1
October Stats: 4 1 0

Inbound Traffic (Arrivals) - 0

No inbound traffic.


Outbound Traffic (Departures) - 0

No outbound traffic.


Local Traffic (Pattern) - 0

No local traffic.